createdAt,value
2017-12-23T00:00:15.775Z,5.37
2017-12-23T00:01:42.987Z,5.37
2017-12-23T00:03:10.174Z,5.36
2017-12-23T00:04:40.112Z,5.32
2017-12-23T00:06:04.412Z,5.32
2017-12-23T00:07:32.735Z,5.31
2017-12-23T00:08:59.072Z,5.31
2017-12-23T00:10:27.147Z,5.27
2017-12-23T00:11:54.345Z,5.24
2017-12-23T00:13:20.677Z,5.25
2017-12-23T00:14:49.058Z,5.26
2017-12-23T00:16:15.164Z,5.26
2017-12-23T00:17:42.464Z,5.27
2017-12-23T00:19:09.628Z,5.25
2017-12-23T00:20:36.878Z,5.23
2017-12-23T00:22:04.180Z,5.21
2017-12-23T00:23:31.378Z,5.20
2017-12-23T00:24:58.726Z,5.19
2017-12-23T00:26:25.845Z,5.16
2017-12-23T00:27:52.889Z,5.15
2017-12-23T00:29:20.162Z,5.13
2017-12-23T00:30:48.396Z,5.14
2017-12-23T00:32:14.379Z,5.16
2017-12-23T00:33:42.592Z,5.18
2017-12-23T00:35:08.856Z,5.19
2017-12-23T00:36:36.126Z,5.20
2017-12-23T00:38:03.174Z,5.21
2017-12-23T00:39:31.466Z,5.23
2017-12-23T00:40:57.792Z,5.24
2017-12-23T00:42:25.136Z,5.23
2017-12-23T00:43:53.374Z,5.24
2017-12-23T00:45:20.468Z,5.26
2017-12-23T00:46:46.828Z,5.27
2017-12-23T00:48:14.994Z,5.26
2017-12-23T00:49:41.186Z,5.24
2017-12-23T00:51:08.404Z,5.25
2017-12-23T00:52:36.715Z,5.24
2017-12-23T00:54:03.944Z,5.24
2017-12-23T00:55:31.163Z,5.25
2017-12-23T00:56:58.400Z,5.27
2017-12-23T00:58:24.654Z,5.29
2017-12-23T00:59:51.887Z,5.29
2017-12-23T01:01:19.110Z,5.31
2017-12-23T01:02:46.354Z,5.31
2017-12-23T01:04:13.527Z,5.30
2017-12-23T01:05:41.675Z,5.31
2017-12-23T01:07:08.969Z,5.30
2017-12-23T01:08:35.335Z,5.29
2017-12-23T01:10:02.667Z,5.30
2017-12-23T01:11:30.964Z,5.30
2017-12-23T01:12:58.075Z,5.30
2017-12-23T01:14:25.207Z,5.29
2017-12-23T01:15:51.426Z,5.33
2017-12-23T01:17:18.775Z,5.36
2017-12-23T01:18:46.105Z,5.36
2017-12-23T01:20:13.200Z,5.36
2017-12-23T01:21:40.441Z,5.36
2017-12-23T01:23:08.675Z,5.38
2017-12-23T01:24:35.992Z,5.38
2017-12-23T01:26:03.397Z,5.38
2017-12-23T01:27:30.504Z,5.43
2017-12-23T01:28:57.827Z,5.44
2017-12-23T01:30:24.220Z,5.42
2017-12-23T01:31:51.296Z,5.42
2017-12-23T01:33:19.333Z,5.40
2017-12-23T01:34:46.584Z,5.41
2017-12-23T01:36:13.838Z,5.38
2017-12-23T01:37:40.002Z,5.41
2017-12-23T01:39:08.286Z,5.40
2017-12-23T01:40:35.772Z,5.41
2017-12-23T01:42:01.981Z,5.41
2017-12-23T01:43:29.159Z,5.41
2017-12-23T01:44:56.281Z,5.41
2017-12-23T01:46:23.490Z,5.45
2017-12-23T01:47:51.758Z,5.48
2017-12-23T01:49:18.077Z,5.51
2017-12-23T01:50:46.243Z,5.51
2017-12-23T01:52:12.563Z,5.51
2017-12-23T01:53:39.376Z,5.50
2017-12-23T01:55:06.672Z,5.49
2017-12-23T01:56:33.983Z,5.49
2017-12-23T01:58:02.195Z,5.48
2017-12-23T01:59:29.452Z,5.48
2017-12-23T02:00:55.769Z,5.46
2017-12-23T02:02:24.323Z,5.47
2017-12-23T02:03:50.507Z,5.46
2017-12-23T02:05:17.858Z,5.44
2017-12-23T02:06:45.962Z,5.45
2017-12-23T02:08:13.113Z,5.44
2017-12-23T02:09:40.407Z,5.42
2017-12-23T02:11:06.790Z,5.42
2017-12-23T02:12:34.998Z,5.44
2017-12-23T02:14:02.252Z,5.44
2017-12-23T02:15:28.718Z,5.42
2017-12-23T02:16:56.009Z,5.43
2017-12-23T02:18:23.188Z,5.44
2017-12-23T02:19:51.695Z,5.45
2017-12-23T02:21:18.657Z,5.47
2017-12-23T02:22:45.659Z,5.49
2017-12-23T02:24:11.812Z,5.52
2017-12-23T02:25:39.284Z,5.55
2017-12-23T02:27:06.567Z,5.54
2017-12-23T02:28:34.105Z,5.52
2017-12-23T02:30:04.325Z,5.49
2017-12-23T02:31:29.798Z,5.50
2017-12-23T02:32:56.067Z,5.49
2017-12-23T02:34:23.408Z,5.50
2017-12-23T02:35:51.626Z,5.50
2017-12-23T02:37:17.894Z,5.53
2017-12-23T02:38:45.136Z,5.52
2017-12-23T02:40:13.513Z,5.54
2017-12-23T02:41:39.600Z,5.56
2017-12-23T02:43:07.808Z,5.55
2017-12-23T02:44:34.240Z,5.55
2017-12-23T02:46:01.333Z,5.58
2017-12-23T02:47:28.500Z,5.59
2017-12-23T02:48:56.918Z,5.58
2017-12-23T02:50:24.104Z,5.59
2017-12-23T02:51:51.467Z,5.58
2017-12-23T02:53:17.606Z,5.60
2017-12-23T02:54:45.865Z,5.60
2017-12-23T02:56:12.024Z,5.61
2017-12-23T02:57:40.524Z,5.61
2017-12-23T02:59:07.806Z,5.60
2017-12-23T03:00:34.931Z,5.60
2017-12-23T03:02:01.264Z,5.60
2017-12-23T03:03:28.464Z,5.57
2017-12-23T03:04:55.745Z,5.54
2017-12-23T03:06:22.964Z,5.52
2017-12-23T03:07:51.283Z,5.50
2017-12-23T03:09:17.580Z,5.49
2017-12-23T03:10:44.737Z,5.49
2017-12-23T03:12:13.170Z,5.50
2017-12-23T03:13:40.534Z,5.46
2017-12-23T03:15:06.788Z,5.47
2017-12-23T03:16:34.000Z,5.45
2017-12-23T03:18:02.235Z,5.43
2017-12-23T03:19:28.433Z,5.42
2017-12-23T03:20:55.520Z,5.41
2017-12-23T03:22:23.705Z,5.42
2017-12-23T03:23:51.034Z,5.42
2017-12-23T03:25:17.361Z,5.41
2017-12-23T03:26:44.492Z,5.37
2017-12-23T03:28:11.704Z,5.37
2017-12-23T03:29:39.064Z,5.36
2017-12-23T03:31:06.412Z,5.34
2017-12-23T03:32:34.532Z,5.33
2017-12-23T03:34:00.779Z,5.32
2017-12-23T03:35:27.800Z,5.32
2017-12-23T03:36:55.033Z,5.31
2017-12-23T03:38:22.291Z,5.34
2017-12-23T03:39:49.655Z,5.33
2017-12-23T03:41:17.009Z,5.33
2017-12-23T03:42:44.092Z,5.31
2017-12-23T03:44:11.528Z,5.29
2017-12-23T03:45:38.435Z,5.26
2017-12-23T03:47:06.990Z,5.24
2017-12-23T03:48:34.031Z,5.23
2017-12-23T03:50:00.357Z,5.23
2017-12-23T03:51:27.653Z,5.20
2017-12-23T03:52:56.036Z,5.19
2017-12-23T03:54:22.271Z,5.16
2017-12-23T03:55:49.313Z,5.15
2017-12-23T03:57:16.702Z,5.13
2017-12-23T03:58:44.896Z,5.10
2017-12-23T04:00:11.164Z,5.07
2017-12-23T04:01:38.525Z,5.10
2017-12-23T04:03:05.921Z,5.12
2017-12-23T04:04:33.119Z,5.12
2017-12-23T04:06:01.419Z,5.12
2017-12-23T04:07:27.766Z,5.13
2017-12-23T04:08:56.064Z,5.13
2017-12-23T04:10:22.423Z,5.13
2017-12-23T04:11:50.602Z,5.15
2017-12-23T04:13:16.888Z,5.17
2017-12-23T04:14:43.896Z,5.15
2017-12-23T04:16:12.100Z,5.17
2017-12-23T04:17:38.345Z,5.21
2017-12-23T04:19:05.590Z,5.21
2017-12-23T04:20:32.893Z,5.21
2017-12-23T04:22:00.148Z,5.20
2017-12-23T04:23:27.440Z,5.21
2017-12-23T04:24:54.729Z,5.22
2017-12-23T04:26:22.900Z,5.25
2017-12-23T04:27:49.207Z,5.24
2017-12-23T04:29:16.473Z,5.26
2017-12-23T04:30:43.652Z,5.30
2017-12-23T04:32:10.760Z,5.31
2017-12-23T04:33:37.956Z,5.31
2017-12-23T04:35:05.352Z,5.30
2017-12-23T04:36:33.485Z,5.31
2017-12-23T04:38:00.762Z,5.32
2017-12-23T04:39:27.221Z,5.32
2017-12-23T04:40:54.362Z,5.32
2017-12-23T04:42:22.753Z,5.28
2017-12-23T04:43:50.069Z,5.30
2017-12-23T04:45:16.244Z,5.32
2017-12-23T04:46:43.428Z,5.30
2017-12-23T04:48:11.564Z,5.31
2017-12-23T04:49:37.950Z,5.30
2017-12-23T04:51:06.227Z,5.28
2017-12-23T04:52:33.554Z,5.28
2017-12-23T04:53:59.939Z,5.29
2017-12-23T04:55:27.117Z,5.30
2017-12-23T04:56:54.310Z,5.28
2017-12-23T04:58:21.514Z,5.29
2017-12-23T04:59:48.710Z,5.28
2017-12-23T05:01:17.005Z,5.29
2017-12-23T05:02:43.122Z,5.28
2017-12-23T05:04:11.397Z,5.28
2017-12-23T05:05:38.411Z,5.29
2017-12-23T05:07:04.849Z,5.32
2017-12-23T05:08:32.238Z,5.32
2017-12-23T05:09:59.488Z,5.31
2017-12-23T05:11:26.673Z,5.31
2017-12-23T05:12:54.900Z,5.28
2017-12-23T05:14:21.034Z,5.27
2017-12-23T05:15:48.132Z,5.25
2017-12-23T05:17:16.303Z,5.23
2017-12-23T05:18:42.578Z,5.26
2017-12-23T05:20:10.687Z,5.28
2017-12-23T05:21:37.146Z,5.32
2017-12-23T05:23:04.399Z,5.33
2017-12-23T05:24:31.688Z,5.34
2017-12-23T05:25:58.958Z,5.31
2017-12-23T05:27:27.386Z,5.29
2017-12-23T05:28:53.529Z,5.31
2017-12-23T05:30:21.646Z,5.29
2017-12-23T05:31:47.875Z,5.30
2017-12-23T05:33:15.135Z,5.33
2017-12-23T05:34:43.342Z,5.35
2017-12-23T05:36:09.573Z,5.33
2017-12-23T05:37:36.629Z,5.31
2017-12-23T05:39:03.869Z,5.31
2017-12-23T05:40:32.137Z,5.29
2017-12-23T05:41:58.434Z,5.26
2017-12-23T05:43:25.696Z,5.26
2017-12-23T05:44:52.901Z,5.27
2017-12-23T05:46:20.078Z,5.28
2017-12-23T05:47:48.373Z,5.28
2017-12-23T05:49:15.397Z,5.29
2017-12-23T05:50:41.553Z,5.31
2017-12-23T05:52:09.780Z,5.31
2017-12-23T05:53:37.051Z,5.31
2017-12-23T05:55:04.389Z,5.31
2017-12-23T05:56:30.527Z,5.33
2017-12-23T05:57:58.679Z,5.34
2017-12-23T05:59:25.132Z,5.36
2017-12-23T06:00:53.472Z,5.39
2017-12-23T06:02:20.445Z,5.39
2017-12-23T06:03:47.723Z,5.38
2017-12-23T06:05:14.994Z,5.39
2017-12-23T06:06:40.973Z,5.41
2017-12-23T06:08:08.234Z,5.44
2017-12-23T06:09:36.769Z,5.45
2017-12-23T06:11:03.022Z,5.45
2017-12-23T06:12:30.201Z,5.45
2017-12-23T06:13:57.385Z,5.48
2017-12-23T06:15:24.585Z,5.48
2017-12-23T06:16:53.067Z,5.49
2017-12-23T06:18:19.407Z,5.51
2017-12-23T06:19:47.668Z,5.52
2017-12-23T06:21:15.044Z,5.53
2017-12-23T06:22:41.076Z,5.57
2017-12-23T06:24:08.362Z,5.57
2017-12-23T06:25:35.552Z,5.58
2017-12-23T06:27:02.913Z,5.61
2017-12-23T06:28:31.150Z,5.63
2017-12-23T06:29:58.320Z,5.65
2017-12-23T06:31:25.747Z,5.63
2017-12-23T06:32:52.054Z,5.65
2017-12-23T06:34:19.002Z,5.67
2017-12-23T06:35:46.257Z,5.70
2017-12-23T06:37:13.483Z,5.70
2017-12-23T06:38:40.552Z,5.72
2017-12-23T06:40:07.944Z,5.73
2017-12-23T06:41:36.333Z,5.73
2017-12-23T06:43:02.342Z,5.76
2017-12-23T06:44:30.728Z,5.76
2017-12-23T06:45:58.008Z,5.79
2017-12-23T06:47:24.499Z,5.81
2017-12-23T06:48:51.878Z,5.82
2017-12-23T06:50:20.042Z,5.83
2017-12-23T06:51:46.327Z,5.82
2017-12-23T06:53:14.456Z,5.82
2017-12-23T06:54:40.589Z,5.84
2017-12-23T06:56:08.895Z,5.85
2017-12-23T06:57:35.114Z,5.87
2017-12-23T06:59:03.339Z,5.88
2017-12-23T07:00:29.704Z,5.88
2017-12-23T07:01:57.030Z,5.89
2017-12-23T07:03:24.283Z,5.89
2017-12-23T07:04:52.447Z,5.91
2017-12-23T07:06:19.652Z,5.93
2017-12-23T07:07:45.883Z,5.95
2017-12-23T07:09:12.966Z,5.97
2017-12-23T07:10:40.331Z,5.99
2017-12-23T07:12:07.705Z,6.01
2017-12-23T07:13:35.773Z,6.01
2017-12-23T07:15:02.191Z,6.04
2017-12-23T07:16:29.604Z,6.07
2017-12-23T07:17:56.914Z,6.10
2017-12-23T07:19:25.055Z,6.11
2017-12-23T07:20:51.430Z,6.12
2017-12-23T07:22:18.549Z,6.13
2017-12-23T07:23:45.839Z,6.16
2017-12-23T07:25:13.116Z,6.19
2017-12-23T07:26:40.236Z,6.22
2017-12-23T07:28:07.591Z,6.24
2017-12-23T07:29:34.910Z,6.25
2017-12-23T07:31:02.091Z,6.25
2017-12-23T07:32:30.180Z,6.26
2017-12-23T07:33:57.531Z,6.28
2017-12-23T07:35:24.876Z,6.30
2017-12-23T07:36:51.278Z,6.32
2017-12-23T07:38:18.748Z,6.33
2017-12-23T07:39:46.887Z,6.33
2017-12-23T07:41:12.988Z,6.35
2017-12-23T07:42:40.119Z,6.37
2017-12-23T07:44:07.638Z,6.39
2017-12-23T07:45:35.723Z,6.40
2017-12-23T07:47:02.076Z,6.41
2017-12-23T07:48:30.305Z,6.43
2017-12-23T07:49:57.623Z,6.43
2017-12-23T07:51:24.820Z,6.44
2017-12-23T07:52:51.259Z,6.46
2017-12-23T07:54:18.402Z,6.45
2017-12-23T07:55:45.715Z,6.46
2017-12-23T07:57:13.899Z,6.47
2017-12-23T07:58:40.960Z,6.47
2017-12-23T08:00:08.041Z,6.50
2017-12-23T08:01:34.498Z,6.51
2017-12-23T08:03:01.896Z,6.52
2017-12-23T08:04:29.051Z,6.52
2017-12-23T08:05:56.279Z,6.53
2017-12-23T08:07:23.575Z,6.55
2017-12-23T08:08:50.872Z,6.56
2017-12-23T08:10:17.936Z,6.56
2017-12-23T08:11:44.998Z,6.56
2017-12-23T08:13:12.232Z,6.57
2017-12-23T08:14:40.523Z,6.58
2017-12-23T08:16:06.915Z,6.59
2017-12-23T08:17:34.056Z,6.59
2017-12-23T08:19:02.283Z,6.59
2017-12-23T08:20:29.560Z,6.58
2017-12-23T08:21:56.725Z,6.59
2017-12-23T08:23:23.100Z,6.59
2017-12-23T08:24:51.520Z,6.60
2017-12-23T08:26:18.612Z,6.61
2017-12-23T08:27:46.014Z,6.61
2017-12-23T08:29:13.163Z,6.62
2017-12-23T08:30:40.203Z,6.62
2017-12-23T08:32:06.657Z,6.63
2017-12-23T08:33:33.894Z,6.65
2017-12-23T08:35:02.173Z,6.66
2017-12-23T08:36:29.490Z,6.67
2017-12-23T08:37:55.809Z,6.67
2017-12-23T08:39:24.197Z,6.68
2017-12-23T08:40:50.339Z,6.67
2017-12-23T08:42:17.663Z,6.67
2017-12-23T08:43:45.831Z,6.67
2017-12-23T08:45:11.988Z,6.69
2017-12-23T08:46:39.307Z,6.69
2017-12-23T08:48:06.753Z,6.71
2017-12-23T08:49:35.009Z,6.70
2017-12-23T08:51:01.132Z,6.70
2017-12-23T08:52:28.357Z,6.69
2017-12-23T08:53:56.629Z,6.69
2017-12-23T08:55:23.849Z,6.69
2017-12-23T08:56:50.335Z,6.71
2017-12-23T08:58:17.684Z,6.72
2017-12-23T08:59:44.954Z,6.73
2017-12-23T09:01:11.957Z,6.74
2017-12-23T09:02:40.317Z,6.76
2017-12-23T09:04:07.471Z,6.77
2017-12-23T09:05:33.659Z,6.79
2017-12-23T09:07:00.979Z,6.82
2017-12-23T09:08:28.177Z,6.83
2017-12-23T09:09:56.502Z,6.84
2017-12-23T09:11:22.604Z,6.85
2017-12-23T09:12:50.059Z,6.86
2017-12-23T09:14:18.333Z,6.86
2017-12-23T09:15:44.580Z,6.87
2017-12-23T09:17:11.816Z,6.87
2017-12-23T09:18:39.156Z,6.88
2017-12-23T09:20:06.390Z,6.89
2017-12-23T09:21:34.612Z,6.91
2017-12-23T09:23:01.828Z,6.92
2017-12-23T09:24:29.062Z,6.95
2017-12-23T09:25:55.343Z,6.96
2017-12-23T09:27:22.479Z,6.97
2017-12-23T09:28:49.866Z,6.99
2017-12-23T09:30:17.141Z,7.00
2017-12-23T09:31:45.220Z,7.01
2017-12-23T09:33:12.470Z,7.03
2017-12-23T09:34:38.693Z,7.05
2017-12-23T09:36:06.075Z,7.08
2017-12-23T09:37:34.381Z,7.09
2017-12-23T09:39:00.433Z,7.11
2017-12-23T09:40:27.854Z,7.14
2017-12-23T09:41:55.099Z,7.17
2017-12-23T09:43:23.305Z,7.19
2017-12-23T09:44:50.487Z,7.22
2017-12-23T09:46:16.993Z,7.24
2017-12-23T09:47:45.230Z,7.27
2017-12-23T09:49:12.507Z,7.29
2017-12-23T09:50:38.644Z,7.31
2017-12-23T09:52:06.058Z,7.33
2017-12-23T09:53:33.439Z,7.37
2017-12-23T09:55:00.788Z,7.39
2017-12-23T09:56:28.070Z,7.40
2017-12-23T09:57:55.504Z,7.42
2017-12-23T09:59:22.598Z,7.44
2017-12-23T10:00:49.777Z,7.46
2017-12-23T10:02:17.020Z,7.47
2017-12-23T10:03:45.243Z,7.48
2017-12-23T10:05:12.328Z,7.49
2017-12-23T10:06:38.714Z,7.50
2017-12-23T10:08:06.074Z,7.51
2017-12-23T10:09:33.272Z,7.53
2017-12-23T10:11:00.604Z,7.56
2017-12-23T10:12:28.698Z,7.58
2017-12-23T10:13:55.056Z,7.60
2017-12-23T10:15:22.362Z,7.61
2017-12-23T10:16:49.523Z,7.62
2017-12-23T10:18:16.892Z,7.64
2017-12-23T10:19:45.070Z,7.65
2017-12-23T10:21:11.336Z,7.65
2017-12-23T10:22:38.771Z,7.67
2017-12-23T10:24:06.046Z,7.68
2017-12-23T10:25:34.416Z,7.68
2017-12-23T10:27:00.870Z,7.69
2017-12-23T10:28:29.113Z,7.70
2017-12-23T10:29:55.281Z,7.70
2017-12-23T10:31:23.725Z,7.71
2017-12-23T10:32:50.019Z,7.73
2017-12-23T10:34:18.191Z,7.73
2017-12-23T10:35:44.620Z,7.76
2017-12-23T10:37:12.930Z,7.77
2017-12-23T10:38:39.197Z,7.78
2017-12-23T10:40:07.503Z,7.80
2017-12-23T10:41:33.741Z,7.80
2017-12-23T10:43:01.874Z,7.80
2017-12-23T10:44:28.328Z,7.80
2017-12-23T10:45:55.573Z,7.82
2017-12-23T10:47:22.905Z,7.84
2017-12-23T10:48:50.137Z,7.84
2017-12-23T10:50:18.287Z,7.83
2017-12-23T10:51:44.674Z,7.83
2017-12-23T10:53:11.823Z,7.85
2017-12-23T10:54:39.199Z,7.86
2017-12-23T10:56:06.480Z,7.88
2017-12-23T10:57:34.751Z,7.89
2017-12-23T10:59:01.058Z,7.91
2017-12-23T11:00:28.306Z,7.92
2017-12-23T11:01:55.524Z,7.92
2017-12-23T11:03:22.897Z,7.92
2017-12-23T11:04:50.987Z,7.91
2017-12-23T11:06:17.321Z,7.92
2017-12-23T11:07:44.473Z,7.93
2017-12-23T11:09:11.721Z,7.93
2017-12-23T11:10:39.079Z,7.94
2017-12-23T11:12:06.459Z,7.94
2017-12-23T11:13:33.893Z,7.94
2017-12-23T11:15:01.299Z,7.95
2017-12-23T11:16:29.688Z,7.95
2017-12-23T11:17:56.594Z,7.94
2017-12-23T11:19:24.098Z,7.94
2017-12-23T11:20:50.538Z,7.94
2017-12-23T11:22:17.887Z,7.94
2017-12-23T11:23:45.233Z,7.95
2017-12-23T11:25:12.693Z,7.97
2017-12-23T11:26:39.703Z,7.98
2017-12-23T11:28:08.046Z,7.97
2017-12-23T11:29:35.471Z,7.97
2017-12-23T11:31:01.926Z,7.97
2017-12-23T11:32:30.066Z,7.97
2017-12-23T11:33:56.613Z,7.98
2017-12-23T11:35:23.963Z,7.99
2017-12-23T11:36:51.209Z,7.99
2017-12-23T11:38:18.376Z,7.99
2017-12-23T11:39:46.751Z,7.98
2017-12-23T11:41:13.026Z,7.99
2017-12-23T11:42:40.234Z,7.99
2017-12-23T11:44:07.630Z,8.00
2017-12-23T11:45:35.044Z,8.00
2017-12-23T11:47:03.385Z,8.00
2017-12-23T11:48:29.692Z,8.02
2017-12-23T11:49:56.840Z,8.00
2017-12-23T11:51:23.924Z,7.99
2017-12-23T11:52:51.161Z,7.98
2017-12-23T11:54:19.583Z,7.98
2017-12-23T11:55:45.976Z,7.98
2017-12-23T11:57:13.242Z,7.98
2017-12-23T11:58:40.465Z,7.97
2017-12-23T12:00:07.776Z,7.99
2017-12-23T12:01:35.075Z,7.99
2017-12-23T12:03:02.491Z,8.00
2017-12-23T12:04:30.732Z,8.01
2017-12-23T12:05:58.098Z,8.02
2017-12-23T12:07:24.438Z,8.01
2017-12-23T12:08:52.579Z,8.00
2017-12-23T12:10:20.017Z,7.99
2017-12-23T12:11:46.414Z,7.99
2017-12-23T12:13:13.740Z,7.99
2017-12-23T12:14:41.124Z,7.99
2017-12-23T12:16:09.129Z,7.98
2017-12-23T12:17:36.704Z,7.98
2017-12-23T12:19:02.995Z,7.98
2017-12-23T12:20:31.405Z,7.99
2017-12-23T12:21:57.630Z,8.00
2017-12-23T12:23:24.871Z,8.00
2017-12-23T12:24:53.029Z,8.03
2017-12-23T12:26:19.326Z,8.04
2017-12-23T12:27:40.592Z,8.06
2017-12-23T12:29:14.909Z,8.07
2017-12-23T12:30:40.934Z,8.08
2017-12-23T12:32:08.378Z,8.09
2017-12-23T12:33:36.694Z,8.09
2017-12-23T12:35:02.978Z,8.08
2017-12-23T12:36:30.268Z,8.09
2017-12-23T12:37:57.714Z,8.09
2017-12-23T12:39:25.218Z,8.08
2017-12-23T12:40:52.368Z,8.08
2017-12-23T12:42:20.741Z,8.07
2017-12-23T12:43:47.667Z,8.09
2017-12-23T12:45:13.778Z,8.08
2017-12-23T12:46:41.966Z,8.08
2017-12-23T12:48:08.343Z,8.09
2017-12-23T12:49:35.414Z,8.10
2017-12-23T12:51:02.881Z,8.10
2017-12-23T12:52:31.221Z,8.10
2017-12-23T12:53:57.208Z,8.09
2017-12-23T12:55:25.508Z,8.09
2017-12-23T12:56:52.986Z,8.09
2017-12-23T12:58:20.323Z,8.08
2017-12-23T12:59:46.504Z,8.07
2017-12-23T13:01:14.574Z,8.08
2017-12-23T13:02:40.473Z,8.09
2017-12-23T13:04:08.621Z,8.09
2017-12-23T13:05:36.083Z,8.09
2017-12-23T13:07:02.935Z,8.10
2017-12-23T13:08:29.251Z,8.10
2017-12-23T13:09:56.526Z,8.11
2017-12-23T13:11:23.900Z,8.13
2017-12-23T13:12:52.004Z,8.14
2017-12-23T13:14:19.250Z,8.14
2017-12-23T13:15:46.764Z,8.14
2017-12-23T13:17:12.926Z,8.14
2017-12-23T13:18:40.014Z,8.14
2017-12-23T13:20:07.277Z,8.14
2017-12-23T13:21:34.614Z,8.15
2017-12-23T13:23:01.873Z,8.15
2017-12-23T13:24:30.184Z,8.17
2017-12-23T13:25:56.363Z,8.17
2017-12-23T13:27:23.783Z,8.18
2017-12-23T13:28:51.940Z,8.20
2017-12-23T13:30:19.202Z,8.22
2017-12-23T13:31:46.497Z,8.22
2017-12-23T13:33:12.640Z,8.24
2017-12-23T13:34:39.704Z,8.24
2017-12-23T13:36:06.933Z,8.24
2017-12-23T13:37:34.445Z,8.25
2017-12-23T13:39:01.732Z,8.25
2017-12-23T13:40:29.190Z,8.24
2017-12-23T13:41:56.508Z,8.23
2017-12-23T13:43:24.927Z,8.22
2017-12-23T13:44:52.273Z,8.22
2017-12-23T13:46:18.577Z,8.23
2017-12-23T13:47:45.966Z,8.22
2017-12-23T13:49:14.196Z,8.21
2017-12-23T13:50:41.246Z,8.23
2017-12-23T13:52:08.718Z,8.22
2017-12-23T13:53:35.070Z,8.22
2017-12-23T13:55:02.371Z,8.21
2017-12-23T13:56:30.766Z,8.21
2017-12-23T13:57:56.927Z,8.20
2017-12-23T13:59:25.290Z,8.20
2017-12-23T14:00:52.638Z,8.19
2017-12-23T14:02:19.005Z,8.19
2017-12-23T14:03:46.397Z,8.20
2017-12-23T14:05:13.620Z,8.20
2017-12-23T14:06:41.693Z,8.21
2017-12-23T14:08:07.818Z,8.22
2017-12-23T14:09:35.228Z,8.22
2017-12-23T14:11:02.681Z,8.21
2017-12-23T14:12:29.890Z,8.20
2017-12-23T14:13:57.016Z,8.21
2017-12-23T14:15:24.283Z,8.22
2017-12-23T14:16:51.703Z,8.21
2017-12-23T14:18:19.169Z,8.22
2017-12-23T14:19:46.543Z,8.23
2017-12-23T14:21:13.789Z,8.23
2017-12-23T14:22:41.121Z,8.24
2017-12-23T14:24:08.561Z,8.24
2017-12-23T14:25:35.929Z,8.25
2017-12-23T14:27:03.325Z,8.24
2017-12-23T14:28:30.635Z,8.24
2017-12-23T14:29:57.854Z,8.24
2017-12-23T14:31:26.154Z,8.24
2017-12-23T14:32:52.508Z,8.23
2017-12-23T14:34:19.722Z,8.24
2017-12-23T14:35:46.853Z,8.26
2017-12-23T14:37:15.042Z,8.26
2017-12-23T14:38:42.245Z,8.25
2017-12-23T14:40:09.537Z,8.25
2017-12-23T14:41:36.683Z,8.25
2017-12-23T14:43:02.989Z,8.26
2017-12-23T14:44:31.365Z,8.28
2017-12-23T14:45:58.677Z,8.27
2017-12-23T14:47:26.082Z,8.27
2017-12-23T14:48:52.257Z,8.26
2017-12-23T14:50:19.512Z,8.26
2017-12-23T14:51:46.689Z,8.26
2017-12-23T14:53:13.951Z,8.28
2017-12-23T14:54:41.992Z,8.27
2017-12-23T14:56:09.342Z,8.28
2017-12-23T14:57:35.795Z,8.29
2017-12-23T14:59:04.055Z,8.30
2017-12-23T15:00:30.387Z,8.30
2017-12-23T15:01:58.751Z,8.31
2017-12-23T15:03:25.173Z,8.31
2017-12-23T15:04:52.437Z,8.31
2017-12-23T15:06:20.861Z,8.32
2017-12-23T15:07:47.091Z,8.33
2017-12-23T15:09:14.453Z,8.31
2017-12-23T15:10:41.556Z,8.31
2017-12-23T15:12:09.835Z,8.32
2017-12-23T15:13:36.189Z,8.34
2017-12-23T15:15:03.373Z,8.37
2017-12-23T15:16:30.774Z,8.38
2017-12-23T15:17:58.144Z,8.38
2017-12-23T15:19:26.506Z,8.39
2017-12-23T15:20:52.828Z,8.39
2017-12-23T15:22:20.225Z,8.38
2017-12-23T15:23:47.551Z,8.39
2017-12-23T15:25:16.182Z,8.40
2017-12-23T15:26:42.439Z,8.41
2017-12-23T15:28:09.828Z,8.43
2017-12-23T15:29:37.271Z,8.43
2017-12-23T15:31:05.631Z,8.43
2017-12-23T15:32:31.889Z,8.45
2017-12-23T15:34:00.237Z,8.45
2017-12-23T15:35:26.417Z,8.45
2017-12-23T15:36:53.761Z,8.47
2017-12-23T15:38:22.018Z,8.46
2017-12-23T15:39:48.374Z,8.46
2017-12-23T15:41:15.516Z,8.48
2017-12-23T15:42:43.678Z,8.49
2017-12-23T15:44:09.836Z,8.48
2017-12-23T15:45:37.024Z,8.48
2017-12-23T15:47:05.266Z,8.48
2017-12-23T15:48:31.725Z,8.49
2017-12-23T15:50:00.062Z,8.48
2017-12-23T15:51:26.262Z,8.49
2017-12-23T15:52:53.355Z,8.49
2017-12-23T15:54:20.729Z,8.48
2017-12-23T15:55:48.105Z,8.47
2017-12-23T15:57:15.453Z,8.47
2017-12-23T15:58:42.692Z,8.47
2017-12-23T16:00:09.991Z,8.48
2017-12-23T16:01:38.130Z,8.48
2017-12-23T16:03:05.317Z,8.47
2017-12-23T16:04:31.736Z,8.48
2017-12-23T16:05:59.146Z,8.48
2017-12-23T16:07:27.479Z,8.46
2017-12-23T16:08:53.813Z,8.47
2017-12-23T16:10:21.211Z,8.46
2017-12-23T16:11:48.429Z,8.45
2017-12-23T16:13:15.679Z,8.44
2017-12-23T16:14:42.956Z,8.43
2017-12-23T16:16:11.112Z,8.43
2017-12-23T16:17:37.332Z,8.42
2017-12-23T16:19:04.898Z,8.42
2017-12-23T16:20:32.242Z,8.41
2017-12-23T16:21:59.520Z,8.41
2017-12-23T16:23:27.752Z,8.40
2017-12-23T16:24:54.185Z,8.40
2017-12-23T16:26:21.421Z,8.39
2017-12-23T16:27:48.628Z,8.38
2017-12-23T16:29:15.956Z,8.39
2017-12-23T16:30:44.309Z,8.40
2017-12-23T16:32:11.617Z,8.40
2017-12-23T16:33:38.941Z,8.40
2017-12-23T16:35:05.427Z,8.42
2017-12-23T16:36:32.743Z,8.41
2017-12-23T16:38:01.044Z,8.42
2017-12-23T16:39:27.042Z,8.42
2017-12-23T16:40:55.397Z,8.43
2017-12-23T16:42:22.491Z,8.44
2017-12-23T16:43:48.901Z,8.46
2017-12-23T16:45:17.235Z,8.46
2017-12-23T16:46:43.619Z,8.47
2017-12-23T16:48:11.975Z,8.47
2017-12-23T16:49:38.024Z,8.48
2017-12-23T16:51:05.450Z,8.49
2017-12-23T16:52:33.755Z,8.50
2017-12-23T16:54:00.908Z,8.52
2017-12-23T16:55:27.311Z,8.52
2017-12-23T16:56:54.672Z,8.52
2017-12-23T16:58:22.029Z,8.54
2017-12-23T16:59:49.479Z,8.55
2017-12-23T17:01:16.727Z,8.55
2017-12-23T17:02:45.087Z,8.56
2017-12-23T17:04:11.329Z,8.55
2017-12-23T17:05:38.631Z,8.57
2017-12-23T17:07:06.001Z,8.58
2017-12-23T17:08:34.296Z,8.59
2017-12-23T17:10:00.710Z,8.60
2017-12-23T17:11:29.038Z,8.61
2017-12-23T17:12:56.322Z,8.62
2017-12-23T17:14:22.720Z,8.62
2017-12-23T17:15:50.056Z,8.63
2017-12-23T17:17:18.222Z,8.65
2017-12-23T17:18:44.314Z,8.67
2017-12-23T17:20:11.612Z,8.69
2017-12-23T17:21:39.070Z,8.70
2017-12-23T17:23:06.247Z,8.71
2017-12-23T17:24:33.366Z,8.73
2017-12-23T17:26:00.758Z,8.75
2017-12-23T17:27:28.101Z,8.77
2017-12-23T17:28:55.500Z,8.78
2017-12-23T17:30:22.836Z,8.79
2017-12-23T17:31:51.179Z,8.80
2017-12-23T17:33:18.531Z,8.82
2017-12-23T17:34:45.727Z,8.83
2017-12-23T17:36:13.151Z,8.84
2017-12-23T17:37:39.450Z,8.85
2017-12-23T17:39:06.801Z,8.86
2017-12-23T17:40:35.360Z,8.87
2017-12-23T17:42:01.652Z,8.88
2017-12-23T17:43:29.104Z,8.90
2017-12-23T17:44:56.320Z,8.92
2017-12-23T17:46:23.569Z,8.93
2017-12-23T17:47:51.006Z,8.93
2017-12-23T17:49:18.315Z,8.94
2017-12-23T17:50:45.554Z,8.96
2017-12-23T17:52:12.936Z,8.97
2017-12-23T17:53:39.942Z,8.98
2017-12-23T17:55:08.103Z,8.99
2017-12-23T17:56:34.452Z,9.01
2017-12-23T17:58:02.910Z,9.04
2017-12-23T17:59:29.228Z,9.04
2017-12-23T18:00:56.822Z,9.07
2017-12-23T18:02:25.236Z,9.08
2017-12-23T18:03:52.612Z,9.10
2017-12-23T18:05:19.881Z,9.11
2017-12-23T18:06:45.968Z,9.12
2017-12-23T18:08:13.260Z,9.11
2017-12-23T18:09:40.398Z,9.11
2017-12-23T18:11:08.534Z,9.12
2017-12-23T18:12:34.753Z,9.13
2017-12-23T18:14:02.119Z,9.14
2017-12-23T18:15:29.477Z,9.15
2017-12-23T18:16:56.868Z,9.18
2017-12-23T18:18:25.143Z,9.18
2017-12-23T18:19:51.556Z,9.19
2017-12-23T18:21:19.024Z,9.19
2017-12-23T18:22:47.202Z,9.21
2017-12-23T18:24:14.674Z,9.22
2017-12-23T18:25:40.546Z,9.23
2017-12-23T18:27:09.065Z,9.24
2017-12-23T18:28:35.393Z,9.25
2017-12-23T18:30:02.722Z,9.26
2017-12-23T18:31:30.073Z,9.27
2017-12-23T18:32:57.979Z,9.27
2017-12-23T18:34:24.288Z,9.27
2017-12-23T18:35:51.629Z,9.29
2017-12-23T18:37:20.069Z,9.31
2017-12-23T18:38:46.454Z,9.31
2017-12-23T18:40:14.785Z,9.31
2017-12-23T18:41:40.993Z,9.32
2017-12-23T18:43:09.144Z,9.32
2017-12-23T18:44:36.490Z,9.32
2017-12-23T18:46:02.957Z,9.31
2017-12-23T18:47:31.389Z,9.32
2017-12-23T18:48:58.848Z,9.30
2017-12-23T18:50:25.159Z,9.30
2017-12-23T18:51:52.547Z,9.31
2017-12-23T18:53:19.868Z,9.30
2017-12-23T18:54:47.259Z,9.31
2017-12-23T18:56:15.631Z,9.30
2017-12-23T18:57:42.959Z,9.29
2017-12-23T18:59:09.246Z,9.29
2017-12-23T19:00:36.703Z,9.28
2017-12-23T19:02:03.997Z,9.27
2017-12-23T19:03:31.390Z,9.26
2017-12-23T19:04:59.673Z,9.27
2017-12-23T19:06:26.104Z,9.27
2017-12-23T19:07:53.427Z,9.28
2017-12-23T19:09:21.666Z,9.29
2017-12-23T19:10:47.995Z,9.30
2017-12-23T19:12:15.304Z,9.29
2017-12-23T19:13:42.697Z,9.28
2017-12-23T19:15:10.835Z,9.29
2017-12-23T19:16:37.203Z,9.28
2017-12-23T19:18:04.667Z,9.28
2017-12-23T19:19:31.979Z,9.28
2017-12-23T19:20:59.262Z,9.27